デンパサール の空港の天気 - METARとTAF

デンパサール国際空港 ( WADD / DPS ) - インドネシア バリ島デンパサール
飛行場実況気象(Metar)
観測時間07/21 06:00 WITA (07/20 22:00 UTC)
風向・風速西南西 1m/s
視程10km以上
天気現象
全天の4割程度の雲 雲底高度 460m
気温25℃
湿度89%
気圧1012hPa
METARWADD 202200Z 24002KT 9999 SCT015 25/23 Q1012 NOSIG
過去の天気等 Google飛行場航空写真 Wunderground天気予報

過去48時間のMETAR

飛行場予報(TAF)
発表時間: 7/21 01:00 WITA (7/20 17:00 UTC)
予報対象時間: 21日2時 WITA ~ 22日2時 WITA
風向・風速東南東 3m/s
視程10km以上
全天の4割程度の雲 雲底高度 520m
21日7時 WITA ~ 21日9時 WITA に徐々に
風向・風速南東 6m/s
TAF WADD 201700Z 2018/2118 12005KT 9999 SCT017
BECMG 2023/2101 13012KT